Terminal Aerodrome Forecast
Issued by NWS

Home | Current Version | Previous Version | Text Only | Print | Product List | Glossary On
Versions: 1 2 3 4 5 6 7 8 9 10 11 12 13 14 15 16 17 18 19
000
FTUS43 KAPX 020500
TAFTVC
TAF
KTVC 020520Z 0206/0306 25005KT P6SM FEW070
     FM020900 00000KT P6SM FEW200
     FM021600 26010KT P6SM SCT090 BKN180
     FM030100 00000KT P6SM SKC=

USA.gov is the U.S. government's official web portal to all federal, state and local government web resources and services.